createdAt,value
2022-08-26T00:00:21.013Z,9.35
2022-08-26T00:02:48.973Z,10.45
2022-08-26T00:05:17.398Z,11.82
2022-08-26T00:07:46.585Z,11.10
2022-08-26T00:10:14.984Z,10.45
2022-08-26T00:12:44.290Z,9.88
2022-08-26T00:15:18.583Z,11.90
2022-08-26T00:17:50.102Z,13.40
2022-08-26T00:20:23.002Z,17.20
2022-08-26T00:22:51.144Z,11.82
2022-08-26T00:25:19.673Z,12.02
2022-08-26T00:27:50.870Z,13.32
2022-08-26T00:30:26.601Z,13.32
2022-08-26T00:32:55.821Z,14.02
2022-08-26T00:35:28.024Z,12.80
2022-08-26T00:37:58.840Z,13.32
2022-08-26T00:40:31.540Z,14.88
2022-08-26T00:43:06.988Z,13.38
2022-08-26T00:45:45.234Z,12.75
2022-08-26T00:48:17.323Z,13.32
2022-08-26T00:50:54.568Z,15.70
2022-08-26T00:53:30.383Z,13.38
2022-08-26T00:56:09.671Z,14.75
2022-08-26T00:58:45.316Z,14.93
2022-08-26T01:01:13.783Z,14.73
2022-08-26T01:03:44.726Z,14.35
2022-08-26T01:06:14.765Z,15.68
2022-08-26T01:08:42.648Z,14.93
2022-08-26T01:11:14.950Z,19.17
2022-08-26T01:13:47.476Z,17.10
2022-08-26T01:16:16.920Z,16.13
2022-08-26T01:18:46.799Z,18.85
2022-08-26T01:21:25.098Z,17.33
2022-08-26T01:23:57.898Z,17.60
2022-08-26T01:26:33.780Z,19.38
2022-08-26T01:29:06.054Z,17.98
2022-08-26T01:31:41.766Z,18.45
2022-08-26T01:34:18.062Z,16.80
2022-08-26T01:36:51.611Z,17.27
2022-08-26T01:39:23.029Z,17.45
2022-08-26T01:41:56.892Z,19.52
2022-08-26T01:44:30.492Z,18.50
2022-08-26T01:47:02.002Z,16.92
2022-08-26T01:49:36.592Z,19.08
2022-08-26T01:52:07.563Z,18.58
2022-08-26T01:54:40.408Z,16.73
2022-08-26T01:57:09.078Z,14.18
2022-08-26T01:59:38.040Z,17.77
2022-08-26T02:02:07.124Z,14.35
2022-08-26T02:04:44.211Z,17.50
2022-08-26T02:07:12.694Z,16.80
2022-08-26T02:09:42.820Z,16.63
2022-08-26T02:12:15.169Z,15.05
2022-08-26T02:14:50.164Z,14.90
2022-08-26T02:17:26.133Z,16.42
2022-08-26T02:22:24.857Z,16.60
2022-08-26T02:24:58.209Z,15.52
2022-08-26T02:27:32.352Z,18.40
2022-08-26T02:30:09.629Z,16.63
2022-08-26T02:32:40.154Z,19.23
2022-08-26T02:35:10.904Z,18.35
2022-08-26T02:37:39.108Z,17.42
2022-08-26T02:40:15.254Z,19.70
2022-08-26T02:42:43.472Z,20.40
2022-08-26T02:45:13.366Z,19.05
2022-08-26T02:47:45.230Z,19.88
2022-08-26T02:50:14.808Z,21.92
2022-08-26T02:52:45.613Z,22.90
2022-08-26T02:55:15.790Z,20.27
2022-08-26T02:57:44.033Z,21.17
2022-08-26T03:00:15.338Z,20.55
2022-08-26T03:02:43.661Z,22.80
2022-08-26T03:05:13.054Z,23.27
2022-08-26T03:07:40.912Z,23.05
2022-08-26T03:10:12.502Z,23.15
2022-08-26T03:12:42.960Z,22.00
2022-08-26T03:15:18.642Z,22.92
2022-08-26T03:17:49.034Z,23.92
2022-08-26T03:20:18.795Z,24.33
2022-08-26T03:22:47.158Z,27.98
2022-08-26T03:25:17.507Z,25.90
2022-08-26T03:27:46.742Z,27.10
2022-08-26T03:30:34.907Z,26.58
2022-08-26T03:33:04.037Z,29.05
2022-08-26T03:35:32.784Z,27.75
2022-08-26T03:38:02.016Z,30.80
2022-08-26T03:40:30.301Z,31.58
2022-08-26T03:42:59.881Z,30.17
2022-08-26T03:45:27.939Z,34.20
2022-08-26T03:47:56.219Z,34.95
2022-08-26T03:50:27.068Z,37.40
2022-08-26T03:52:59.412Z,40.22
2022-08-26T03:55:33.010Z,44.95
2022-08-26T03:58:02.641Z,43.97
2022-08-26T04:00:30.747Z,45.13
2022-08-26T04:02:58.796Z,44.20
2022-08-26T04:05:26.935Z,49.67
2022-08-26T04:07:56.171Z,48.72
2022-08-26T04:10:28.552Z,50.92
2022-08-26T04:12:58.728Z,50.20
2022-08-26T04:15:28.806Z,52.97
2022-08-26T04:17:57.377Z,54.10
2022-08-26T04:20:26.942Z,55.22
2022-08-26T04:22:54.806Z,59.90
2022-08-26T04:25:24.273Z,62.22
2022-08-26T04:27:52.387Z,58.88
2022-08-26T04:30:21.205Z,61.20
2022-08-26T04:32:50.536Z,67.28
2022-08-26T04:35:25.601Z,65.35
2022-08-26T04:37:54.486Z,64.72
2022-08-26T04:40:23.270Z,64.18
2022-08-26T04:42:52.445Z,70.82
2022-08-26T04:45:22.759Z,68.60
2022-08-26T04:47:56.212Z,72.63
2022-08-26T04:50:25.749Z,77.68
2022-08-26T04:52:55.410Z,80.97
2022-08-26T04:55:38.675Z,80.88
2022-08-26T04:58:10.891Z,87.78
2022-08-26T05:00:38.831Z,90.57
2022-08-26T05:03:10.383Z,92.55
2022-08-26T05:05:41.168Z,83.57
2022-08-26T05:08:11.185Z,88.53
2022-08-26T05:10:41.101Z,87.40
2022-08-26T05:13:11.168Z,85.65
2022-08-26T05:15:40.121Z,81.63
2022-08-26T05:18:10.701Z,86.35
2022-08-26T05:20:41.776Z,84.68
2022-08-26T05:23:09.869Z,85.20
2022-08-26T05:25:40.391Z,82.32
2022-08-26T05:28:09.044Z,75.60
2022-08-26T05:30:38.221Z,79.78
2022-08-26T05:33:08.176Z,78.32
2022-08-26T05:35:39.010Z,72.53
2022-08-26T05:38:12.819Z,78.70
2022-08-26T05:40:44.721Z,84.53
2022-08-26T05:43:13.937Z,75.25
2022-08-26T05:45:46.151Z,76.25
2022-08-26T05:48:16.107Z,83.97
2022-08-26T05:50:47.986Z,78.53
2022-08-26T05:53:20.622Z,82.28
2022-08-26T05:55:51.983Z,74.10
2022-08-26T05:58:22.019Z,79.22
2022-08-26T06:00:59.141Z,74.68
2022-08-26T06:03:28.361Z,77.07
2022-08-26T06:05:57.944Z,75.10
2022-08-26T06:08:25.892Z,78.05
2022-08-26T06:10:59.445Z,69.53
2022-08-26T06:13:31.918Z,72.20
2022-08-26T06:16:05.135Z,71.25
2022-08-26T06:18:37.607Z,66.43
2022-08-26T06:21:16.675Z,68.50
2022-08-26T06:24:06.587Z,71.90
2022-08-26T06:26:37.037Z,69.25
2022-08-26T06:29:06.994Z,68.10
2022-08-26T06:31:37.258Z,67.72
2022-08-26T06:34:10.727Z,65.95
2022-08-26T06:36:43.935Z,65.70
2022-08-26T06:39:16.533Z,62.35
2022-08-26T06:41:46.298Z,60.13
2022-08-26T06:44:19.474Z,58.40
2022-08-26T06:46:50.267Z,60.42
2022-08-26T06:49:26.560Z,62.83
2022-08-26T06:51:59.592Z,59.75
2022-08-26T06:54:31.421Z,58.00
2022-08-26T06:56:59.686Z,59.08
2022-08-26T06:59:28.289Z,55.83
2022-08-26T07:01:56.151Z,56.80
2022-08-26T07:04:24.966Z,57.10
2022-08-26T07:06:57.588Z,54.08
2022-08-26T07:09:29.242Z,50.63
2022-08-26T07:11:57.214Z,50.80
2022-08-26T07:14:26.261Z,50.42
2022-08-26T07:16:55.158Z,54.67
2022-08-26T07:19:30.592Z,53.72
2022-08-26T07:22:05.067Z,52.00
2022-08-26T07:24:36.822Z,53.00
2022-08-26T07:27:08.960Z,53.95
2022-08-26T07:29:39.498Z,55.47
2022-08-26T07:32:08.440Z,49.35
2022-08-26T07:34:38.355Z,49.70
2022-08-26T07:37:08.869Z,48.35
2022-08-26T07:39:38.113Z,48.28
2022-08-26T07:42:10.631Z,46.80
2022-08-26T07:44:40.546Z,47.60
2022-08-26T07:47:24.556Z,51.47
2022-08-26T07:49:55.993Z,47.85
2022-08-26T07:52:29.021Z,44.83
2022-08-26T07:54:59.662Z,46.22
2022-08-26T07:57:29.512Z,45.95
2022-08-26T08:00:01.391Z,46.45
2022-08-26T08:02:29.863Z,45.35
2022-08-26T08:04:58.309Z,43.30
2022-08-26T08:07:45.136Z,41.97
2022-08-26T08:10:18.214Z,45.30
2022-08-26T08:12:48.483Z,44.20
2022-08-26T08:15:20.115Z,41.40
2022-08-26T08:17:50.460Z,47.25
2022-08-26T08:20:21.430Z,47.33
2022-08-26T08:22:53.121Z,47.50
2022-08-26T08:25:24.609Z,46.80
2022-08-26T08:27:53.899Z,46.28
2022-08-26T08:30:24.444Z,47.55
2022-08-26T08:32:53.462Z,40.08
2022-08-26T08:35:27.640Z,43.70
2022-08-26T08:37:59.114Z,47.03
2022-08-26T08:40:28.092Z,49.53
2022-08-26T08:43:04.226Z,44.72
2022-08-26T08:45:39.374Z,48.83
2022-08-26T08:48:20.305Z,45.47
2022-08-26T08:50:57.062Z,46.25
2022-08-26T08:53:35.277Z,42.70
2022-08-26T08:56:17.011Z,39.78
2022-08-26T08:58:56.840Z,43.88
2022-08-26T09:01:54.204Z,44.50
2022-08-26T09:04:56.088Z,45.88
2022-08-26T09:07:36.577Z,44.17
2022-08-26T09:10:30.607Z,40.90
2022-08-26T09:13:02.585Z,42.85
2022-08-26T09:15:45.401Z,39.10
2022-08-26T09:18:36.850Z,41.13
2022-08-26T09:21:11.700Z,43.15
2022-08-26T09:23:42.879Z,42.28
2022-08-26T09:26:19.871Z,37.25
2022-08-26T09:28:56.263Z,39.78
2022-08-26T09:31:29.308Z,42.63
2022-08-26T09:34:17.269Z,42.67
2022-08-26T09:36:49.619Z,40.58
2022-08-26T09:39:33.427Z,41.00
2022-08-26T09:42:11.230Z,36.42
2022-08-26T09:44:56.510Z,41.65
2022-08-26T09:47:30.237Z,38.10
2022-08-26T09:52:42.902Z,37.92
2022-08-26T09:55:21.033Z,39.08
2022-08-26T09:57:54.164Z,38.53
2022-08-26T10:00:31.167Z,36.47
2022-08-26T10:03:02.615Z,35.65
2022-08-26T10:05:42.420Z,35.45
2022-08-26T10:08:26.128Z,35.10
2022-08-26T10:10:57.117Z,35.92
2022-08-26T10:13:35.648Z,40.55
2022-08-26T10:16:17.786Z,38.60
2022-08-26T10:19:00.046Z,35.58
2022-08-26T10:21:37.036Z,34.47
2022-08-26T10:24:09.048Z,36.20
2022-08-26T10:26:50.618Z,34.97
2022-08-26T10:29:29.605Z,33.92
2022-08-26T10:32:03.532Z,32.35
2022-08-26T10:34:32.301Z,29.60
2022-08-26T10:37:15.066Z,31.55
2022-08-26T10:39:57.014Z,30.65
2022-08-26T10:42:35.295Z,30.08
2022-08-26T10:45:11.098Z,32.65
2022-08-26T10:47:50.116Z,27.13
2022-08-26T10:50:22.942Z,26.48
2022-08-26T10:53:02.281Z,28.95
2022-08-26T10:55:40.393Z,28.50
2022-08-26T10:58:36.744Z,26.02
2022-08-26T11:04:48.484Z,23.73
2022-08-26T11:07:36.757Z,27.30
2022-08-26T11:10:31.982Z,24.83
2022-08-26T11:13:03.462Z,23.60
2022-08-26T11:16:09.393Z,24.02
2022-08-26T11:22:11.738Z,24.88
2022-08-26T11:25:01.491Z,22.58
2022-08-26T11:27:57.852Z,20.30
2022-08-26T11:30:49.085Z,19.90
2022-08-26T11:33:57.925Z,19.60
2022-08-26T11:36:57.445Z,19.35
2022-08-26T11:39:36.517Z,21.33
2022-08-26T11:42:27.722Z,20.73
2022-08-26T11:44:58.208Z,20.02
2022-08-26T11:47:31.431Z,23.35
2022-08-26T11:50:16.731Z,18.08
2022-08-26T11:52:53.549Z,18.80
2022-08-26T11:55:23.341Z,18.27
2022-08-26T11:57:57.571Z,19.17
2022-08-26T12:00:33.578Z,19.00
2022-08-26T12:03:08.547Z,17.13
2022-08-26T12:05:45.978Z,14.77
2022-08-26T12:08:21.541Z,18.67
2022-08-26T12:10:49.760Z,16.67
2022-08-26T12:13:25.036Z,13.00
2022-08-26T12:15:57.764Z,13.85
2022-08-26T12:18:31.302Z,16.40
2022-08-26T12:21:12.298Z,13.60
2022-08-26T12:23:44.899Z,15.05
2022-08-26T12:26:24.429Z,18.00
2022-08-26T12:28:59.484Z,15.27
2022-08-26T12:31:32.779Z,16.83
2022-08-26T12:34:04.888Z,15.20
2022-08-26T12:36:43.141Z,14.02
2022-08-26T12:39:16.638Z,13.88
2022-08-26T12:41:49.613Z,14.68
2022-08-26T12:44:53.454Z,14.48
2022-08-26T12:47:30.988Z,12.38
2022-08-26T12:50:18.950Z,16.67
2022-08-26T12:53:00.860Z,14.68
2022-08-26T12:55:44.842Z,13.07
2022-08-26T12:58:23.960Z,12.47
2022-08-26T13:00:54.654Z,13.07
2022-08-26T13:03:43.940Z,12.00
2022-08-26T13:06:31.286Z,13.35
2022-08-26T13:09:06.057Z,11.88
2022-08-26T13:12:02.152Z,12.30
2022-08-26T13:14:31.110Z,9.93
2022-08-26T13:16:59.259Z,10.15
2022-08-26T13:19:27.154Z,10.48
2022-08-26T13:21:58.436Z,8.98
2022-08-26T13:24:32.930Z,12.52
2022-08-26T13:27:05.491Z,10.45
2022-08-26T13:29:34.869Z,9.30
2022-08-26T13:32:06.497Z,10.73
2022-08-26T13:34:37.407Z,11.52
2022-08-26T13:37:06.724Z,10.57
2022-08-26T13:39:35.140Z,11.63
2022-08-26T13:42:05.334Z,11.32
2022-08-26T13:44:33.469Z,10.82
2022-08-26T13:47:01.349Z,7.97
2022-08-26T13:49:45.493Z,14.93
2022-08-26T13:52:13.757Z,8.90
2022-08-26T13:54:41.747Z,11.35
2022-08-26T13:57:11.567Z,9.50
2022-08-26T13:59:42.302Z,10.43
2022-08-26T14:02:13.286Z,9.10
2022-08-26T14:04:41.622Z,8.07
2022-08-26T14:07:12.191Z,11.02
2022-08-26T14:09:40.291Z,8.07
2022-08-26T14:12:10.042Z,8.73
2022-08-26T14:14:38.181Z,10.60
2022-08-26T14:17:07.104Z,8.25
2022-08-26T14:19:35.288Z,10.63
2022-08-26T14:22:04.583Z,10.77
2022-08-26T14:24:32.456Z,8.25
2022-08-26T14:27:00.406Z,7.80
2022-08-26T14:29:29.666Z,12.18
2022-08-26T14:32:00.809Z,7.13
2022-08-26T14:34:29.016Z,13.32
2022-08-26T14:36:56.825Z,12.07
2022-08-26T14:39:24.828Z,10.60
2022-08-26T14:41:56.544Z,8.20
2022-08-26T14:44:31.218Z,9.35
2022-08-26T14:47:02.201Z,10.63
2022-08-26T14:49:31.449Z,10.85
2022-08-26T14:51:59.561Z,9.55
2022-08-26T14:54:29.336Z,10.65
2022-08-26T14:57:01.800Z,11.20
2022-08-26T14:59:34.475Z,9.90
2022-08-26T15:02:07.362Z,11.35
2022-08-26T15:04:35.413Z,11.55
2022-08-26T15:07:04.895Z,9.18
2022-08-26T15:09:37.308Z,9.20
2022-08-26T15:12:12.841Z,9.18
2022-08-26T15:14:42.086Z,10.82
2022-08-26T15:17:10.071Z,11.60
2022-08-26T15:19:38.916Z,11.25
2022-08-26T15:22:07.038Z,8.13
2022-08-26T15:24:35.086Z,10.52
2022-08-26T15:27:03.582Z,7.97
2022-08-26T15:29:31.627Z,6.35
2022-08-26T15:32:07.228Z,7.95
2022-08-26T15:34:36.531Z,7.80
2022-08-26T15:37:06.359Z,6.57
2022-08-26T15:39:35.069Z,8.15
2022-08-26T15:42:03.984Z,9.73
2022-08-26T15:44:33.978Z,7.70
2022-08-26T15:47:02.980Z,10.57
2022-08-26T15:49:32.862Z,8.50
2022-08-26T15:52:03.452Z,6.85
2022-08-26T15:54:33.393Z,10.38
2022-08-26T15:57:04.075Z,8.57
2022-08-26T15:59:33.288Z,11.70
2022-08-26T16:02:02.149Z,9.50
2022-08-26T16:04:32.821Z,10.15
2022-08-26T16:07:01.307Z,11.07
2022-08-26T16:09:31.777Z,9.18
2022-08-26T16:12:00.923Z,9.30
2022-08-26T16:14:31.050Z,7.75
2022-08-26T16:16:59.044Z,8.48
2022-08-26T16:19:27.582Z,10.15
2022-08-26T16:21:56.903Z,9.90
2022-08-26T16:24:30.358Z,10.43
2022-08-26T16:26:58.729Z,9.77
2022-08-26T16:29:27.484Z,8.85
2022-08-26T16:31:55.383Z,8.13
2022-08-26T16:34:24.899Z,6.88
2022-08-26T16:36:53.252Z,11.50
2022-08-26T16:39:22.874Z,7.28
2022-08-26T16:41:50.826Z,7.95
2022-08-26T16:44:19.100Z,6.20
2022-08-26T16:46:47.180Z,7.40
2022-08-26T16:49:15.504Z,7.35
2022-08-26T16:51:43.789Z,8.05
2022-08-26T16:54:11.666Z,8.98
2022-08-26T16:56:40.891Z,10.48
2022-08-26T16:59:11.466Z,8.90
2022-08-26T17:01:39.445Z,10.13
2022-08-26T17:04:07.726Z,11.30
2022-08-26T17:06:35.977Z,7.35
2022-08-26T17:09:04.182Z,9.48
2022-08-26T17:11:32.052Z,8.60
2022-08-26T17:14:01.464Z,8.82
2022-08-26T17:16:31.970Z,10.27
2022-08-26T17:19:00.752Z,8.65
2022-08-26T17:21:29.944Z,7.43
2022-08-26T17:23:57.982Z,7.25
2022-08-26T17:26:27.031Z,7.03
2022-08-26T17:28:55.684Z,6.10
2022-08-26T17:31:25.250Z,8.30
2022-08-26T17:33:55.373Z,7.82
2022-08-26T17:36:27.608Z,6.32
2022-08-26T17:38:57.946Z,8.70
2022-08-26T17:41:27.344Z,6.53
2022-08-26T17:43:55.589Z,8.88
2022-08-26T17:46:25.455Z,7.20
2022-08-26T17:48:53.484Z,7.93
2022-08-26T17:51:23.184Z,8.57
2022-08-26T17:53:52.506Z,6.60
2022-08-26T17:56:25.987Z,7.90
2022-08-26T17:58:56.968Z,7.22
2022-08-26T18:01:28.500Z,7.80
2022-08-26T18:04:00.274Z,6.80
2022-08-26T18:06:30.606Z,6.70
2022-08-26T18:09:00.246Z,6.82
2022-08-26T18:11:31.095Z,9.80
2022-08-26T18:13:59.845Z,7.82
2022-08-26T18:16:38.166Z,6.97
2022-08-26T18:19:06.706Z,8.60
2022-08-26T18:21:36.188Z,9.32
2022-08-26T18:24:05.104Z,9.98
2022-08-26T18:26:36.960Z,8.55
2022-08-26T18:29:08.118Z,8.38
2022-08-26T18:31:38.590Z,8.10
2022-08-26T18:34:06.933Z,7.80
2022-08-26T18:36:37.144Z,8.43
2022-08-26T18:39:07.887Z,8.02
2022-08-26T18:41:43.030Z,7.65
2022-08-26T18:44:13.975Z,7.65
2022-08-26T18:46:45.872Z,8.93
2022-08-26T18:49:16.542Z,8.43
2022-08-26T18:51:47.779Z,7.82
2022-08-26T18:54:15.939Z,8.20
2022-08-26T18:56:46.199Z,8.40
2022-08-26T18:59:14.469Z,7.72
2022-08-26T19:01:43.908Z,8.32
2022-08-26T19:04:15.528Z,8.10
2022-08-26T19:06:47.462Z,12.18
2022-08-26T19:09:18.010Z,7.90
2022-08-26T19:11:46.516Z,8.15
2022-08-26T19:14:18.641Z,7.15
2022-08-26T19:16:52.243Z,8.93
2022-08-26T19:19:24.037Z,10.57
2022-08-26T19:21:52.559Z,9.55
2022-08-26T19:24:21.536Z,6.95
2022-08-26T19:26:57.624Z,10.68
2022-08-26T19:29:31.429Z,5.72
2022-08-26T19:32:02.071Z,7.53
2022-08-26T19:34:30.643Z,9.13
2022-08-26T19:36:58.907Z,8.43
2022-08-26T19:39:28.504Z,8.80
2022-08-26T19:41:56.691Z,5.78
2022-08-26T19:44:43.458Z,6.43
2022-08-26T19:47:16.395Z,8.77
2022-08-26T19:49:44.730Z,10.68
2022-08-26T19:52:12.722Z,8.73
2022-08-26T19:54:42.267Z,9.57
2022-08-26T19:57:11.068Z,9.25
2022-08-26T19:59:40.182Z,9.70
2022-08-26T20:02:11.010Z,6.45
2022-08-26T20:04:41.800Z,7.85
2022-08-26T20:07:13.067Z,7.13
2022-08-26T20:09:48.013Z,5.55
2022-08-26T20:12:18.671Z,8.68
2022-08-26T20:14:48.182Z,4.85
2022-08-26T20:17:17.075Z,5.32
2022-08-26T20:20:05.046Z,4.35
2022-08-26T20:22:33.640Z,8.35
2022-08-26T20:25:01.559Z,2.92
2022-08-26T20:27:37.836Z,4.10
2022-08-26T20:30:10.069Z,3.33
2022-08-26T20:32:39.357Z,4.90
2022-08-26T20:35:13.462Z,5.38
2022-08-26T20:37:42.279Z,4.80
2022-08-26T20:40:14.393Z,3.60
2022-08-26T20:42:42.503Z,5.03
2022-08-26T20:45:11.778Z,3.85
2022-08-26T20:47:39.833Z,4.28
2022-08-26T20:50:10.075Z,5.00
2022-08-26T20:52:37.942Z,7.53
2022-08-26T20:55:07.114Z,6.03
2022-08-26T20:57:35.034Z,6.22
2022-08-26T21:00:04.914Z,4.22
2022-08-26T21:02:33.900Z,7.20
2022-08-26T21:05:01.883Z,5.45
2022-08-26T21:07:31.252Z,4.75
2022-08-26T21:09:59.192Z,5.45
2022-08-26T21:12:27.351Z,6.50
2022-08-26T21:14:55.388Z,5.10
2022-08-26T21:17:23.237Z,5.90
2022-08-26T21:19:51.500Z,7.00
2022-08-26T21:22:19.811Z,6.57
2022-08-26T21:24:49.372Z,7.15
2022-08-26T21:27:21.290Z,5.47
2022-08-26T21:29:54.794Z,6.80
2022-08-26T21:32:23.904Z,6.20
2022-08-26T21:34:55.698Z,7.57
2022-08-26T21:37:24.845Z,6.53
2022-08-26T21:39:57.071Z,6.47
2022-08-26T21:42:26.529Z,5.57
2022-08-26T21:44:54.594Z,4.65
2022-08-26T21:47:23.289Z,4.28
2022-08-26T21:49:51.582Z,6.43
2022-08-26T21:52:20.063Z,5.60
2022-08-26T21:54:49.374Z,9.30
2022-08-26T21:57:19.168Z,6.03
2022-08-26T21:59:48.027Z,6.80
2022-08-26T22:02:16.175Z,7.97
2022-08-26T22:04:48.591Z,7.88
2022-08-26T22:07:17.980Z,9.00
2022-08-26T22:09:46.758Z,6.95
2022-08-26T22:12:18.214Z,6.88
2022-08-26T22:14:48.477Z,8.00
2022-08-26T22:17:16.864Z,7.07
2022-08-26T22:19:46.273Z,7.70
2022-08-26T22:22:15.573Z,9.23
2022-08-26T22:24:43.650Z,6.40
2022-08-26T22:27:13.578Z,9.93
2022-08-26T22:29:41.725Z,9.55
2022-08-26T22:32:11.082Z,8.30
2022-08-26T22:34:41.835Z,8.00
2022-08-26T22:37:09.845Z,8.02
2022-08-26T22:39:38.006Z,7.35
2022-08-26T22:42:06.284Z,9.60
2022-08-26T22:44:36.533Z,7.43
2022-08-26T22:47:05.489Z,8.40
2022-08-26T22:49:34.737Z,6.32
2022-08-26T22:52:03.462Z,7.32
2022-08-26T22:54:31.835Z,8.43
2022-08-26T22:56:59.680Z,7.30
2022-08-26T22:59:28.500Z,7.95
2022-08-26T23:01:56.469Z,8.73
2022-08-26T23:04:24.560Z,6.47
2022-08-26T23:06:53.833Z,7.40
2022-08-26T23:09:22.282Z,8.80
2022-08-26T23:11:50.199Z,9.23
2022-08-26T23:14:19.146Z,9.88
2022-08-26T23:16:47.941Z,9.50
2022-08-26T23:19:20.384Z,4.60
2022-08-26T23:21:49.938Z,5.03
2022-08-26T23:24:20.877Z,8.40
2022-08-26T23:26:49.123Z,8.52
2022-08-26T23:29:17.218Z,9.02
2022-08-26T23:31:45.230Z,8.82
2022-08-26T23:34:32.812Z,8.30
2022-08-26T23:37:01.678Z,7.40
2022-08-26T23:39:33.276Z,9.73
2022-08-26T23:42:02.175Z,9.60
2022-08-26T23:44:32.019Z,7.60
2022-08-26T23:47:00.864Z,10.23
2022-08-26T23:49:29.302Z,7.57
2022-08-26T23:52:15.991Z,5.75
2022-08-26T23:54:47.766Z,6.57
2022-08-26T23:57:17.847Z,7.35
2022-08-26T23:59:48.518Z,8.18
